Time;durP1;ratioP1;P1;durP2;ratioP2;P2;SDS_P1;SDS_P2;PMS_P1;PMS_P2;Temp;Humidity;BMP_temperature;BMP_pressure;BME280_temperature;BME280_humidity;BME280_pressure;Samples;Min_cycle;Max_cycle;Signal;HPM_P1;HPM_P2
2024/01/14 00:00:33;;;;;;;11.45;5.93;;;;;;;;;;4892083;29;20043;-79
2024/01/14 00:03:04;;;;;;;13.32;6.15;;;;;;;;;;4892441;29;20065;-78
2024/01/14 00:05:36;;;;;;;15.20;6.28;;;;;;;;;;4891071;29;20068;-78
2024/01/14 00:08:04;;;;;;;10.55;5.57;;;;;;;;;;4893032;29;20037;-77
2024/01/14 00:10:35;;;;;;;10.75;5.75;;;;;;;;;;4892068;29;20045;-78
2024/01/14 00:13:17;;;;;;;11.68;5.93;;;;;;;;;;4875198;29;20041;-79
2024/01/14 00:15:49;;;;;;;10.98;6.45;;;;;;;;;;4875200;29;20039;-78
2024/01/14 00:18:27;;;;;;;10.13;5.38;;;;;;;;;;4884960;29;20487;-77
2024/01/14 00:20:58;;;;;;;11.70;6.13;;;;;;;;;;4893600;29;20658;-79
2024/01/14 00:23:46;;;;;;;10.88;5.30;;;;;;;;;;4908109;29;20099;-79
2024/01/14 00:26:35;;;;;;;11.15;6.35;;;;;;;;;;4908234;29;20393;-78
2024/01/14 00:29:02;;;;;;;12.00;6.10;;;;;;;;;;4892530;29;20065;-78
2024/01/14 00:31:32;;;;;;;12.20;5.88;;;;;;;;;;4892335;29;20077;-79
2024/01/14 00:34:06;;;;;;;13.00;6.90;;;;;;;;;;4892228;29;20508;-78
2024/01/14 00:36:44;;;;;;;8.93;4.40;;;;;;;;;;4892355;29;20036;-79
2024/01/14 00:39:14;;;;;;;11.68;6.28;;;;;;;;;;4891856;29;20347;-78
2024/01/14 00:42:07;;;;;;;10.95;6.07;;;;;;;;;;4911153;29;20132;-78
2024/01/14 00:44:36;;;;;;;13.50;6.60;;;;;;;;;;4876831;29;20490;-78
2024/01/14 00:47:02;;;;;;;12.23;6.70;;;;;;;;;;4894460;29;20052;-79
2024/01/14 00:50:04;;;;;;;13.70;6.50;;;;;;;;;;4898440;29;20534;-79
2024/01/14 00:52:44;;;;;;;13.02;6.80;;;;;;;;;;4897463;29;20040;-79
2024/01/14 00:55:15;;;;;;;12.43;6.57;;;;;;;;;;4895091;29;20040;-79
2024/01/14 00:57:43;;;;;;;15.13;6.38;;;;;;;;;;4883437;29;20055;-78
2024/01/14 01:00:09;;;;;;;12.43;5.93;;;;;;;;;;4912668;29;20056;-79
2024/01/14 01:02:35;;;;;;;13.55;6.30;;;;;;;;;;4875428;29;20048;-78
2024/01/14 01:05:01;;;;;;;12.05;6.90;;;;;;;;;;4890438;29;20569;-78
2024/01/14 01:07:34;;;;;;;10.70;5.60;;;;;;;;;;4908355;29;20039;-79
2024/01/14 01:10:05;;;;;;;11.52;6.07;;;;;;;;;;4890610;29;20072;-78
2024/01/14 01:12:37;;;;;;;14.68;6.35;;;;;;;;;;4891139;29;20063;-78
2024/01/14 01:15:08;;;;;;;14.38;6.22;;;;;;;;;;4876230;29;20373;-79
2024/01/14 01:17:37;;;;;;;12.18;6.25;;;;;;;;;;4876285;29;20088;-79
2024/01/14 01:20:16;;;;;;;14.85;6.78;;;;;;;;;;4889949;29;20040;-78
2024/01/14 01:22:44;;;;;;;12.15;6.72;;;;;;;;;;4889953;29;20604;-78
2024/01/14 01:25:15;;;;;;;13.68;6.93;;;;;;;;;;4871731;29;20055;-79
2024/01/14 01:27:50;;;;;;;11.02;5.30;;;;;;;;;;4873882;29;20060;-78
2024/01/14 01:30:21;;;;;;;12.80;6.13;;;;;;;;;;4889406;29;20080;-78
2024/01/14 01:32:48;;;;;;;12.60;6.35;;;;;;;;;;4889399;29;20040;-79
2024/01/14 01:35:16;;;;;;;11.75;5.80;;;;;;;;;;4889234;29;20044;-79
2024/01/14 01:37:44;;;;;;;12.07;6.30;;;;;;;;;;4860599;29;20057;-78
2024/01/14 01:40:13;;;;;;;12.85;5.95;;;;;;;;;;4875438;29;20060;-79
2024/01/14 01:42:39;;;;;;;13.98;6.50;;;;;;;;;;4875066;29;20040;-78
2024/01/14 01:45:05;;;;;;;12.23;6.05;;;;;;;;;;4891087;29;20080;-79
2024/01/14 01:47:31;;;;;;;11.23;5.72;;;;;;;;;;4891779;29;20036;-79
2024/01/14 01:49:58;;;;;;;13.45;5.97;;;;;;;;;;4877564;29;20040;-79
2024/01/14 01:52:29;;;;;;;11.20;5.85;;;;;;;;;;4855009;29;20187;-79
2024/01/14 01:55:04;;;;;;;11.38;6.07;;;;;;;;;;4909470;29;20065;-77
2024/01/14 01:57:34;;;;;;;13.95;6.20;;;;;;;;;;4896596;29;20038;-78
2024/01/14 02:00:03;;;;;;;9.93;4.70;;;;;;;;;;4886299;29;20068;-78
2024/01/14 02:02:40;;;;;;;13.93;6.57;;;;;;;;;;4901943;29;20040;-78
2024/01/14 02:05:06;;;;;;;12.95;6.75;;;;;;;;;;4905073;29;20065;-78
2024/01/14 02:07:33;;;;;;;12.45;6.22;;;;;;;;;;4889269;29;20120;-78
2024/01/14 02:10:02;;;;;;;;;;;;;;;;;;4888204;29;20035;-78
2024/01/14 02:12:30;;;;;;;9.35;4.88;;;;;;;;;;4901148;29;19918;-79
2024/01/14 02:14:59;;;;;;;11.18;5.97;;;;;;;;;;4892032;29;20124;-79
2024/01/14 02:17:28;;;;;;;12.18;5.88;;;;;;;;;;4874077;29;20033;-78
2024/01/14 02:19:56;;;;;;;14.27;6.80;;;;;;;;;;4872877;29;20041;-79
2024/01/14 02:22:36;;;;;;;11.57;5.88;;;;;;;;;;4873788;29;20036;-78
2024/01/14 02:25:07;;;;;;;13.25;6.72;;;;;;;;;;4875394;29;20044;-78
2024/01/14 02:27:36;;;;;;;11.93;6.18;;;;;;;;;;4870854;29;20048;-79
2024/01/14 02:30:10;;;;;;;13.43;6.25;;;;;;;;;;4874743;29;20103;-78
2024/01/14 02:32:39;;;;;;;11.95;6.22;;;;;;;;;;4874452;29;20059;-79
2024/01/14 02:35:06;;;;;;;12.13;6.03;;;;;;;;;;4874149;29;20029;-77
2024/01/14 02:37:35;;;;;;;11.33;6.20;;;;;;;;;;4873587;29;20044;-78
2024/01/14 02:40:04;;;;;;;9.80;5.35;;;;;;;;;;4873845;29;20366;-78
2024/01/14 02:42:37;;;;;;;15.60;6.00;;;;;;;;;;4905193;29;20048;-78
2024/01/14 02:45:07;;;;;;;12.30;5.75;;;;;;;;;;4886911;29;20118;-78
2024/01/14 02:47:34;;;;;;;13.90;6.15;;;;;;;;;;4872540;29;20114;-79
2024/01/14 02:49:59;;;;;;;12.00;5.95;;;;;;;;;;4871954;29;20060;-79
2024/01/14 02:52:28;;;;;;;13.10;6.50;;;;;;;;;;4858034;29;20555;-79
2024/01/14 02:54:56;;;;;;;12.35;6.10;;;;;;;;;;4874324;29;20042;-78
2024/01/14 02:57:33;;;;;;;15.75;6.70;;;;;;;;;;4871283;29;20048;-78
2024/01/14 03:00:02;;;;;;;15.52;6.50;;;;;;;;;;4871248;29;20044;-78
2024/01/14 03:02:35;;;;;;;11.02;5.85;;;;;;;;;;4872565;29;20048;-79
2024/01/14 03:05:01;;;;;;;15.18;7.32;;;;;;;;;;4874864;29;20056;-79
2024/01/14 03:07:34;;;;;;;13.05;5.97;;;;;;;;;;4875679;29;20040;-78
2024/01/14 03:10:06;;;;;;;11.57;6.03;;;;;;;;;;4874336;29;20056;-79
2024/01/14 03:12:31;;;;;;;12.82;6.22;;;;;;;;;;4889479;29;20105;-78
2024/01/14 03:15:01;;;;;;;13.23;6.22;;;;;;;;;;4891750;29;20497;-77
2024/01/14 03:17:26;;;;;;;11.85;6.43;;;;;;;;;;4893557;29;20032;-78
2024/01/14 03:19:54;;;;;;;14.50;6.45;;;;;;;;;;4909192;29;20096;-78
2024/01/14 03:22:20;;;;;;;13.73;6.18;;;;;;;;;;4890796;29;20064;-79
2024/01/14 03:24:48;;;;;;;;;;;;;;;;;;4861659;29;20374;-78
2024/01/14 03:27:16;;;;;;;12.18;5.68;;;;;;;;;;4905360;29;20379;-78
2024/01/14 03:29:43;;;;;;;12.15;6.15;;;;;;;;;;4875846;29;20040;-78
2024/01/14 03:32:20;;;;;;;13.20;6.32;;;;;;;;;;4878865;29;20047;-80
2024/01/14 03:34:47;;;;;;;11.95;6.18;;;;;;;;;;4879276;29;20064;-78
2024/01/14 03:37:13;;;;;;;13.80;6.63;;;;;;;;;;4913410;29;20037;-78
2024/01/14 03:39:40;;;;;;;13.93;6.15;;;;;;;;;;4896849;29;20052;-79
2024/01/14 03:42:12;;;;;;;10.52;6.00;;;;;;;;;;4880402;29;20036;-78
2024/01/14 03:44:39;;;;;;;13.55;5.97;;;;;;;;;;4881197;29;20037;-78
2024/01/14 03:47:11;;;;;;;12.43;6.40;;;;;;;;;;4912356;29;20072;-78
2024/01/14 03:49:47;;;;;;;10.55;5.53;;;;;;;;;;4912966;29;20040;-79
2024/01/14 03:52:14;;;;;;;13.73;6.50;;;;;;;;;;4895641;29;20087;-78
2024/01/14 03:54:41;;;;;;;11.50;5.32;;;;;;;;;;4890206;29;20072;-78
2024/01/14 03:57:09;;;;;;;11.73;6.30;;;;;;;;;;4872685;29;20037;-78
2024/01/14 04:00:03;;;;;;;11.23;5.45;;;;;;;;;;4887006;29;20478;-78
2024/01/14 04:02:30;;;;;;;12.70;5.72;;;;;;;;;;4903515;29;20040;-78
2024/01/14 04:04:56;;;;;;;10.43;4.82;;;;;;;;;;4903858;29;20032;-78
2024/01/14 04:07:24;;;;;;;12.18;5.13;;;;;;;;;;4868893;29;20461;-78
2024/01/14 04:09:50;;;;;;;10.10;5.20;;;;;;;;;;4901437;29;20433;-78
2024/01/14 04:12:19;;;;;;;9.77;5.30;;;;;;;;;;4870997;29;20464;-78
2024/01/14 04:14:46;;;;;;;12.60;6.40;;;;;;;;;;4889667;29;20040;-78
2024/01/14 04:17:15;;;;;;;12.85;6.80;;;;;;;;;;4890459;29;20104;-78
2024/01/14 04:19:43;;;;;;;12.27;6.05;;;;;;;;;;4860313;29;20041;-79
2024/01/14 04:22:14;;;;;;;12.30;5.80;;;;;;;;;;4908802;29;20503;-77
2024/01/14 04:24:41;;;;;;;12.40;5.95;;;;;;;;;;4876023;29;20104;-78
2024/01/14 04:27:09;;;;;;;11.32;5.95;;;;;;;;;;4875353;29;20039;-80
2024/01/14 04:29:38;;;;;;;9.88;5.15;;;;;;;;;;4890169;29;20115;-79
2024/01/14 04:32:06;;;;;;;10.93;5.30;;;;;;;;;;4876758;29;20131;-79
2024/01/14 04:34:33;;;;;;;10.25;5.40;;;;;;;;;;4876390;29;20115;-77
2024/01/14 04:37:03;;;;;;;13.13;6.00;;;;;;;;;;4892074;29;20060;-77
2024/01/14 04:39:36;;;;;;;14.93;6.30;;;;;;;;;;4891068;29;20510;-79
2024/01/14 04:42:05;;;;;;;12.13;5.55;;;;;;;;;;4861026;29;20044;-78
2024/01/14 04:44:33;;;;;;;11.60;5.60;;;;;;;;;;4876689;29;20060;-78
2024/01/14 04:47:00;;;;;;;9.52;5.30;;;;;;;;;;4891928;29;20047;-78
2024/01/14 04:49:27;;;;;;;10.45;4.85;;;;;;;;;;4909128;29;20028;-78
2024/01/14 04:51:52;;;;;;;11.48;5.45;;;;;;;;;;4892992;29;20039;-78
2024/01/14 04:54:28;;;;;;;15.10;5.60;;;;;;;;;;4895024;29;20029;-78
2024/01/14 04:56:57;;;;;;;11.38;5.65;;;;;;;;;;4882726;29;20049;-78
2024/01/14 04:59:23;;;;;;;12.32;6.55;;;;;;;;;;4903224;29;20035;-78
2024/01/14 05:01:51;;;;;;;12.90;6.15;;;;;;;;;;4892835;29;20028;-79
2024/01/14 05:04:18;;;;;;;13.10;5.63;;;;;;;;;;4909172;29;20060;-79
2024/01/14 05:06:46;;;;;;;11.52;5.75;;;;;;;;;;4909030;29;20053;-79
2024/01/14 05:09:13;;;;;;;10.05;5.00;;;;;;;;;;4909186;29;20025;-78
2024/01/14 05:11:41;;;;;;;12.23;5.93;;;;;;;;;;4890513;29;20036;-78
2024/01/14 05:14:07;;;;;;;13.73;6.43;;;;;;;;;;4917979;29;20035;-79
2024/01/14 05:16:33;;;;;;;12.70;5.65;;;;;;;;;;4886439;29;20068;-79
2024/01/14 05:19:01;;;;;;;11.65;6.35;;;;;;;;;;4874655;29;20045;-78
2024/01/14 05:21:35;;;;;;;14.23;5.97;;;;;;;;;;4875264;29;20048;-77
2024/01/14 05:24:00;;;;;;;11.38;6.20;;;;;;;;;;4889500;29;20096;-78
2024/01/14 05:26:29;;;;;;;12.18;6.35;;;;;;;;;;4889795;29;20041;-78
2024/01/14 05:28:59;;;;;;;14.07;5.85;;;;;;;;;;4873661;29;20122;-78
2024/01/14 05:31:26;;;;;;;13.68;6.13;;;;;;;;;;4889653;29;20075;-78
2024/01/14 05:33:54;;;;;;;11.55;5.97;;;;;;;;;;4874803;29;20044;-78
2024/01/14 05:36:25;;;;;;;15.05;6.65;;;;;;;;;;4875029;29;20037;-79
2024/01/14 05:38:51;;;;;;;12.27;5.75;;;;;;;;;;4907802;29;20028;-78
2024/01/14 05:41:17;;;;;;;13.63;6.28;;;;;;;;;;4874060;29;20029;-78
2024/01/14 05:43:42;;;;;;;13.43;6.45;;;;;;;;;;4907620;29;20074;-78
2024/01/14 05:46:12;;;;;;;13.48;5.93;;;;;;;;;;4874761;29;20064;-78
2024/01/14 05:48:39;;;;;;;13.02;6.65;;;;;;;;;;4907810;29;20040;-79
2024/01/14 05:51:04;;;;;;;12.93;5.45;;;;;;;;;;4890462;29;20061;-79
2024/01/14 05:53:31;;;;;;;13.30;6.15;;;;;;;;;;4858384;29;20048;-79
2024/01/14 05:55:58;;;;;;;12.43;5.68;;;;;;;;;;4889361;29;20040;-80
2024/01/14 05:58:26;;;;;;;8.17;3.93;;;;;;;;;;4889769;29;20056;-79
2024/01/14 06:00:53;;;;;;;13.88;6.07;;;;;;;;;;4889128;29;20041;-77
2024/01/14 06:03:22;;;;;;;13.95;6.97;;;;;;;;;;4873161;29;20044;-79
2024/01/14 06:05:49;;;;;;;13.65;6.40;;;;;;;;;;4887636;29;20045;-79
2024/01/14 06:08:16;;;;;;;13.43;6.65;;;;;;;;;;4873353;29;20091;-79
2024/01/14 06:10:55;;;;;;;12.55;6.25;;;;;;;;;;4889839;29;20064;-79
2024/01/14 06:13:26;;;;;;;15.55;7.05;;;;;;;;;;4906462;29;20036;-78
2024/01/14 06:15:51;;;;;;;12.02;6.00;;;;;;;;;;4872987;29;20025;-79
2024/01/14 06:18:18;;;;;;;13.57;6.35;;;;;;;;;;4874022;29;20040;-79
2024/01/14 06:20:45;;;;;;;12.95;6.28;;;;;;;;;;4886742;29;20045;-78
2024/01/14 06:23:13;;;;;;;15.50;7.18;;;;;;;;;;4887732;29;20092;-80
2024/01/14 06:25:40;;;;;;;13.02;6.60;;;;;;;;;;4887878;29;20045;-79
2024/01/14 06:28:09;;;;;;;16.35;6.18;;;;;;;;;;4887596;29;20053;-79
2024/01/14 06:30:40;;;;;;;15.80;6.97;;;;;;;;;;4889594;29;20118;-79
2024/01/14 06:33:09;;;;;;;15.85;7.63;;;;;;;;;;4887625;29;20024;-79
2024/01/14 06:35:35;;;;;;;12.73;6.68;;;;;;;;;;4902022;29;20108;-79
2024/01/14 06:38:06;;;;;;;14.63;6.75;;;;;;;;;;4883675;29;20072;-78
2024/01/14 06:40:34;;;;;;;15.32;7.28;;;;;;;;;;4885237;29;20040;-79
2024/01/14 06:43:01;;;;;;;17.67;7.53;;;;;;;;;;4867873;29;20040;-78
2024/01/14 06:45:28;;;;;;;12.45;6.50;;;;;;;;;;4899750;29;20415;-78
2024/01/14 06:47:54;;;;;;;14.63;6.30;;;;;;;;;;4883012;29;20104;-79
2024/01/14 06:50:20;;;;;;;16.10;7.22;;;;;;;;;;4868082;29;20115;-79
2024/01/14 06:52:52;;;;;;;13.77;6.70;;;;;;;;;;4883205;29;20070;-78
2024/01/14 06:55:19;;;;;;;12.30;6.93;;;;;;;;;;4883812;29;20041;-78
2024/01/14 06:57:46;;;;;;;12.15;6.10;;;;;;;;;;4883942;29;20032;-78
2024/01/14 07:00:14;;;;;;;14.70;7.07;;;;;;;;;;4902465;29;20037;-78
2024/01/14 07:02:42;;;;;;;12.23;5.82;;;;;;;;;;4874111;29;20397;-78
2024/01/14 07:05:09;;;;;;;12.82;6.65;;;;;;;;;;4950831;23;20047;-82
2024/01/14 07:07:46;;;;;;;15.20;7.28;;;;;;;;;;4958003;28;20031;-79
2024/01/14 07:10:12;;;;;;;11.02;5.95;;;;;;;;;;4957500;28;20050;-81
2024/01/14 07:12:39;;;;;;;13.93;6.97;;;;;;;;;;4973768;28;20053;-80
2024/01/14 07:15:08;;;;;;;14.50;6.95;;;;;;;;;;4941318;28;20708;-81
2024/01/14 07:17:35;;;;;;;13.27;6.60;;;;;;;;;;4926740;28;20498;-82
2024/01/14 07:20:02;;;;;;;12.32;5.80;;;;;;;;;;4925852;28;20093;-81
2024/01/14 07:22:32;;;;;;;17.05;6.22;;;;;;;;;;4941609;28;20042;-81
2024/01/14 07:25:10;;;;;;;12.88;6.55;;;;;;;;;;4942970;28;20035;-82
2024/01/14 07:27:57;;;;;;;14.25;6.82;;;;;;;;;;4941777;28;20041;-82
2024/01/14 07:30:27;;;;;;;11.35;6.05;;;;;;;;;;4942762;28;20117;-82
2024/01/14 07:32:55;;;;;;;;;;;;;;;;;;4927453;28;20027;-82
2024/01/14 07:35:25;;;;;;;12.38;6.30;;;;;;;;;;4959385;28;20050;-81
2024/01/14 07:37:57;;;;;;;11.45;6.07;;;;;;;;;;4943457;28;20112;-82
2024/01/14 07:40:27;;;;;;;10.93;5.07;;;;;;;;;;4931094;28;20047;-82
2024/01/14 07:42:56;;;;;;;11.27;5.25;;;;;;;;;;4944997;28;20058;-82
2024/01/14 07:45:23;;;;;;;10.93;5.38;;;;;;;;;;4949425;28;20104;-82
2024/01/14 07:47:57;;;;;;;11.93;5.28;;;;;;;;;;4938113;28;20031;-82
2024/01/14 07:50:27;;;;;;;12.35;5.78;;;;;;;;;;4940081;28;20719;-82
2024/01/14 07:52:55;;;;;;;12.52;5.38;;;;;;;;;;4959749;28;20042;-82
2024/01/14 07:55:21;;;;;;;10.82;5.55;;;;;;;;;;4946520;28;20038;-82
2024/01/14 07:57:57;;;;;;;11.95;6.13;;;;;;;;;;4944200;28;20137;-82
2024/01/14 08:00:29;;;;;;;13.98;6.43;;;;;;;;;;4944928;28;20034;-82
2024/01/14 08:03:03;;;;;;;12.25;5.75;;;;;;;;;;4985148;28;20058;-83
2024/01/14 08:05:31;;;;;;;11.57;6.10;;;;;;;;;;4952350;28;20067;-82
2024/01/14 08:07:58;;;;;;;11.77;5.55;;;;;;;;;;4954371;28;20039;-82
2024/01/14 08:10:25;;;;;;;11.63;5.65;;;;;;;;;;4983091;28;20022;-82
2024/01/14 08:12:59;;;;;;;11.45;5.57;;;;;;;;;;4965438;28;20141;-82
2024/01/14 08:15:27;;;;;;;12.35;6.05;;;;;;;;;;4964502;28;20074;-81
2024/01/14 08:17:57;;;;;;;11.98;6.65;;;;;;;;;;4963507;28;20042;-82
2024/01/14 08:20:25;;;;;;;12.25;5.82;;;;;;;;;;4961454;28;20121;-82
2024/01/14 08:22:55;;;;;;;12.13;5.43;;;;;;;;;;4977189;28;20048;-81
2024/01/14 08:25:22;;;;;;;13.15;6.15;;;;;;;;;;4942651;28;20066;-82
2024/01/14 08:27:55;;;;;;;11.00;5.32;;;;;;;;;;4956386;28;20042;-82
2024/01/14 08:30:43;;;;;;;11.95;6.20;;;;;;;;;;4953816;28;20027;-81
2024/01/14 08:33:15;;;;;;;11.80;5.82;;;;;;;;;;4951977;28;20027;-82
2024/01/14 08:35:47;;;;;;;11.13;5.65;;;;;;;;;;4951573;28;20038;-82
2024/01/14 08:38:16;;;;;;;10.73;5.13;;;;;;;;;;4947880;28;20046;-82
2024/01/14 08:40:58;;;;;;;10.63;5.75;;;;;;;;;;4961661;28;20042;-82
2024/01/14 08:43:52;;;;;;;13.55;5.78;;;;;;;;;;4947652;28;20439;-81
2024/01/14 08:46:19;;;;;;;11.80;5.05;;;;;;;;;;4943829;28;20410;-81
2024/01/14 08:48:47;;;;;;;12.30;5.75;;;;;;;;;;4946561;28;20047;-82
2024/01/14 08:51:13;;;;;;;10.80;5.53;;;;;;;;;;4944395;28;20121;-82
2024/01/14 08:53:41;;;;;;;11.35;5.15;;;;;;;;;;4928647;28;20042;-81
2024/01/14 08:56:06;;;;;;;10.80;5.07;;;;;;;;;;4944487;28;20035;-81
2024/01/14 08:58:35;;;;;;;9.07;5.15;;;;;;;;;;4947664;28;20030;-81
2024/01/14 09:01:04;;;;;;;10.35;5.20;;;;;;;;;;4928517;28;20117;-81
2024/01/14 09:03:32;;;;;;;9.23;4.97;;;;;;;;;;4943893;28;20641;-82
2024/01/14 09:06:10;;;;;;;10.57;4.57;;;;;;;;;;4943602;28;20070;-82
2024/01/14 09:08:36;;;;;;;10.63;4.93;;;;;;;;;;4946325;28;20054;-81
2024/01/14 09:11:03;;;;;;;8.82;4.70;;;;;;;;;;4927648;28;20038;-82
2024/01/14 09:13:36;;;;;;;9.82;5.03;;;;;;;;;;4913476;28;20047;-81
2024/01/14 09:16:09;;;;;;;12.70;5.43;;;;;;;;;;4943681;28;20034;-82
2024/01/14 09:19:47;;;;;;;12.30;4.68;;;;;;;;;;4959087;28;20081;-82
2024/01/14 09:22:19;;;;;;;12.88;5.53;;;;;;;;;;4927626;28;20380;-81
2024/01/14 09:24:45;;;;;;;10.45;5.40;;;;;;;;;;4943948;28;20065;-81
2024/01/14 09:27:17;;;;;;;10.90;5.30;;;;;;;;;;4943468;28;20039;-81
2024/01/14 09:29:44;;;;;;;10.65;5.30;;;;;;;;;;4945849;28;20034;-81
2024/01/14 09:32:20;;;;;;;10.80;5.47;;;;;;;;;;4943305;28;20394;-81
2024/01/14 09:34:57;;;;;;;9.75;5.22;;;;;;;;;;4943850;28;20031;-81
2024/01/14 09:37:25;;;;;;;13.00;5.10;;;;;;;;;;4926533;28;20043;-81
2024/01/14 09:39:51;;;;;;;10.38;4.97;;;;;;;;;;4946076;28;20041;-81
2024/01/14 09:42:23;;;;;;;13.80;5.47;;;;;;;;;;4944689;28;20043;-81
2024/01/14 09:44:51;;;;;;;10.40;5.28;;;;;;;;;;4928697;28;20035;-81
2024/01/14 09:47:18;;;;;;;11.57;5.40;;;;;;;;;;4945172;28;20085;-81
2024/01/14 09:49:45;;;;;;;10.40;5.43;;;;;;;;;;4947534;28;20482;-81
2024/01/14 09:52:15;;;;;;;10.18;5.75;;;;;;;;;;4946142;28;20035;-82
2024/01/14 09:54:43;;;;;;;10.07;4.78;;;;;;;;;;4963040;28;20027;-81
2024/01/14 09:57:12;;;;;;;9.70;4.03;;;;;;;;;;4956469;28;20038;-81
2024/01/14 09:59:39;;;;;;;9.20;5.13;;;;;;;;;;4942228;28;20043;-82
2024/01/14 10:02:07;;;;;;;12.43;5.37;;;;;;;;;;4943620;28;20050;-82
2024/01/14 10:04:32;;;;;;;12.10;5.60;;;;;;;;;;4958852;28;20066;-82
2024/01/14 10:07:01;;;;;;;12.38;5.20;;;;;;;;;;4938642;28;20042;-82
2024/01/14 10:09:28;;;;;;;10.10;4.82;;;;;;;;;;4961003;28;20073;-82
2024/01/14 10:11:56;;;;;;;11.95;5.50;;;;;;;;;;4958754;28;20027;-81
2024/01/14 10:14:26;;;;;;;13.05;5.55;;;;;;;;;;4942891;28;20035;-82
2024/01/14 10:16:52;;;;;;;;;;;;;;;;;;4943678;28;20405;-82
2024/01/14 10:19:26;;;;;;;12.50;5.70;;;;;;;;;;4945584;28;19917;-82
2024/01/14 10:21:57;;;;;;;13.57;5.55;;;;;;;;;;4943248;28;20030;-83
2024/01/14 10:24:25;;;;;;;11.00;5.45;;;;;;;;;;4943950;28;20038;-83
2024/01/14 10:26:56;;;;;;;15.05;5.07;;;;;;;;;;4959382;28;20108;-82
2024/01/14 10:29:29;;;;;;;12.27;5.45;;;;;;;;;;4945584;28;20042;-81
2024/01/14 10:32:07;;;;;;;10.77;5.35;;;;;;;;;;4943360;28;20026;-82
2024/01/14 10:34:36;;;;;;;13.43;6.00;;;;;;;;;;4926316;28;20077;-82
2024/01/14 10:37:05;;;;;;;10.75;5.50;;;;;;;;;;4927044;28;20034;-82
2024/01/14 10:39:33;;;;;;;12.38;5.78;;;;;;;;;;4962571;28;20030;-82
2024/01/14 10:42:00;;;;;;;10.90;5.20;;;;;;;;;;4944045;28;20122;-81
2024/01/14 10:44:28;;;;;;;12.52;5.30;;;;;;;;;;4929182;28;20031;-81
2024/01/14 10:47:08;;;;;;;13.30;5.43;;;;;;;;;;4926965;28;20043;-82
2024/01/14 10:49:37;;;;;;;12.20;5.50;;;;;;;;;;4932238;28;20410;-82
2024/01/14 10:52:08;;;;;;;10.70;5.00;;;;;;;;;;4928994;28;20414;-82
2024/01/14 10:54:47;;;;;;;12.45;5.47;;;;;;;;;;4933298;28;20034;-82
2024/01/14 10:57:27;;;;;;;11.88;5.80;;;;;;;;;;4960527;28;20030;-82
2024/01/14 11:00:10;;;;;;;12.27;5.32;;;;;;;;;;4964721;28;20035;-82
2024/01/14 11:02:37;;;;;;;11.35;4.60;;;;;;;;;;4967425;28;20030;-82
2024/01/14 11:05:04;;;;;;;14.02;5.13;;;;;;;;;;4967153;28;20019;-81
2024/01/14 11:07:32;;;;;;;11.38;5.70;;;;;;;;;;4950511;28;20050;-82
2024/01/14 11:10:15;;;;;;;10.07;4.93;;;;;;;;;;4965281;28;20046;-81
2024/01/14 11:13:04;;;;;;;10.00;4.60;;;;;;;;;;4953478;28;20486;-81
2024/01/14 11:15:36;;;;;;;10.20;4.88;;;;;;;;;;4943892;28;20038;-82
2024/01/14 11:18:09;;;;;;;12.05;5.65;;;;;;;;;;4943606;28;20027;-82
2024/01/14 11:20:36;;;;;;;9.75;4.47;;;;;;;;;;4928908;28;20123;-82
2024/01/14 11:23:02;;;;;;;12.07;5.03;;;;;;;;;;4928206;28;20034;-82
2024/01/14 11:25:33;;;;;;;12.05;4.80;;;;;;;;;;4928153;28;20058;-82
2024/01/14 11:28:07;;;;;;;11.77;5.30;;;;;;;;;;4944901;28;20039;-82
2024/01/14 11:30:53;;;;;;;8.63;5.13;;;;;;;;;;4929020;28;20546;-82
2024/01/14 11:33:42;;;;;;;9.48;4.88;;;;;;;;;;4942480;28;20061;-82
2024/01/14 11:36:11;;;;;;;10.48;4.70;;;;;;;;;;4943077;28;20039;-81
2024/01/14 11:38:46;;;;;;;12.70;5.55;;;;;;;;;;4948078;28;20066;-81
2024/01/14 11:41:31;;;;;;;10.73;5.03;;;;;;;;;;4959226;28;20031;-81
2024/01/14 11:44:07;;;;;;;10.27;4.68;;;;;;;;;;4943800;28;20034;-81
2024/01/14 11:46:42;;;;;;;10.00;5.13;;;;;;;;;;4944923;28;20073;-82
2024/01/14 11:49:17;;;;;;;12.25;5.45;;;;;;;;;;4946041;28;20031;-83
2024/01/14 11:51:57;;;;;;;10.13;4.93;;;;;;;;;;4927867;28;20459;-82
2024/01/14 11:54:27;;;;;;;10.80;5.32;;;;;;;;;;4945216;28;20485;-82
2024/01/14 11:56:58;;;;;;;12.68;5.40;;;;;;;;;;4929096;28;20030;-83
2024/01/14 11:59:28;;;;;;;12.13;5.65;;;;;;;;;;4943971;28;20045;-81
2024/01/14 12:02:10;;;;;;;12.82;5.35;;;;;;;;;;4947787;28;20031;-82
2024/01/14 12:05:17;;;;;;;8.73;4.32;;;;;;;;;;4967000;28;20056;-82
2024/01/14 12:08:38;;;;;;;9.32;4.57;;;;;;;;;;4969065;28;20574;-83
2024/01/14 12:11:40;;;;;;;;;;;;;;;;;;4975339;28;20023;-82
2024/01/14 12:17:40;;;;;;;10.82;5.32;;;;;;;;;;4977705;28;20116;-82
2024/01/14 12:20:48;;;;;;;8.15;4.65;;;;;;;;;;4967371;28;20021;-82
2024/01/14 12:23:38;;;;;;;12.85;5.30;;;;;;;;;;4937595;28;20030;-82
2024/01/14 12:27:00;;;;;;;;;;;;;;;;;;;;;
2024/01/14 12:29:58;;;;;;;10.90;5.10;;;;;;;;;;4980208;28;20038;-82
2024/01/14 12:33:15;;;;;;;10.35;4.03;;;;;;;;;;4976365;28;20043;-82
2024/01/14 12:36:30;;;;;;;8.40;4.47;;;;;;;;;;4968125;28;20031;-82
2024/01/14 12:39:37;;;;;;;11.05;5.10;;;;;;;;;;4932991;29;20051;-83
2024/01/14 12:42:36;;;;;;;10.60;4.40;;;;;;;;;;4933439;29;20040;-81
2024/01/14 12:45:39;;;;;;;9.75;4.68;;;;;;;;;;4937248;29;20031;-82
2024/01/14 12:49:38;;;;;;;8.55;4.05;;;;;;;;;;4960257;29;20058;-82
2024/01/14 12:52:30;;;;;;;10.13;4.10;;;;;;;;;;4931456;29;20035;-82
2024/01/14 12:55:37;;;;;;;9.80;4.72;;;;;;;;;;4930161;29;20014;-83
2024/01/14 12:58:28;;;;;;;9.45;4.72;;;;;;;;;;4961580;29;20024;-82
2024/01/14 13:00:57;;;;;;;9.80;4.82;;;;;;;;;;4928820;29;20043;-82
2024/01/14 13:03:41;;;;;;;;;;;;;;;;;;;;;
2024/01/14 13:06:27;;;;;;;9.60;4.78;;;;;;;;;;4934054;29;20053;-82
2024/01/14 13:10:00;;;;;;;11.43;4.93;;;;;;;;;;4959642;28;20042;-82
2024/01/14 13:13:06;;;;;;;10.95;4.50;;;;;;;;;;4956465;28;20089;-83
2024/01/14 13:16:38;;;;;;;7.03;3.85;;;;;;;;;;4962670;28;20070;-82
2024/01/14 13:19:16;;;;;;;;;;;;;;;;;;4934229;28;20467;-82
2024/01/14 13:21:59;;;;;;;8.00;4.10;;;;;;;;;;4942010;28;19909;-82
2024/01/14 13:25:09;;;;;;;9.30;4.47;;;;;;;;;;4948677;28;20047;-82
2024/01/14 13:28:08;;;;;;;7.97;4.00;;;;;;;;;;4962963;28;20059;-82
2024/01/14 13:30:42;;;;;;;7.93;4.00;;;;;;;;;;4930710;28;20031;-82
2024/01/14 13:34:10;;;;;;;8.68;4.20;;;;;;;;;;4969044;28;20018;-83
2024/01/14 13:36:44;;;;;;;8.00;4.13;;;;;;;;;;4946908;28;20043;-82
2024/01/14 13:39:38;;;;;;;11.35;4.25;;;;;;;;;;4979851;28;20121;-82
2024/01/14 13:42:10;;;;;;;9.18;4.10;;;;;;;;;;4933851;28;20069;-82
2024/01/14 13:45:18;;;;;;;8.02;4.32;;;;;;;;;;4980183;28;20039;-81
2024/01/14 13:48:17;;;;;;;6.57;3.38;;;;;;;;;;4948817;28;20066;-82
2024/01/14 13:51:31;;;;;;;7.18;4.18;;;;;;;;;;4965347;28;20039;-82
2024/01/14 13:54:25;;;;;;;7.97;4.38;;;;;;;;;;4971502;28;20042;-83
2024/01/14 13:57:03;;;;;;;10.05;4.35;;;;;;;;;;4960129;28;20041;-82
2024/01/14 14:00:03;;;;;;;9.35;4.05;;;;;;;;;;4955878;28;20055;-82
2024/01/14 14:02:39;;;;;;;8.23;4.13;;;;;;;;;;4982609;28;20034;-82
2024/01/14 14:05:07;;;;;;;11.15;4.10;;;;;;;;;;4967617;28;20034;-82
2024/01/14 14:07:41;;;;;;;9.57;3.80;;;;;;;;;;4966673;28;20049;-82
2024/01/14 14:10:28;;;;;;;10.07;4.78;;;;;;;;;;4972776;28;20030;-82
2024/01/14 14:13:02;;;;;;;9.00;3.97;;;;;;;;;;4942652;28;20043;-82
2024/01/14 14:15:31;;;;;;;9.15;4.65;;;;;;;;;;4948067;28;20042;-82
2024/01/14 14:18:07;;;;;;;;;;;;;;;;;;4947310;28;20482;-82
2024/01/14 14:20:52;;;;;;;10.10;3.90;;;;;;;;;;4935425;28;19910;-82
2024/01/14 14:23:22;;;;;;;10.10;3.75;;;;;;;;;;4930214;28;20130;-81
2024/01/14 14:25:58;;;;;;;9.60;4.47;;;;;;;;;;4929714;28;20066;-82
2024/01/14 14:28:31;;;;;;;9.13;4.00;;;;;;;;;;4960472;28;20106;-82
2024/01/14 14:31:29;;;;;;;9.00;3.80;;;;;;;;;;4935754;28;20049;-81
2024/01/14 14:34:00;;;;;;;8.60;4.10;;;;;;;;;;4957613;28;20122;-82
2024/01/14 14:39:59;;;;;;;9.25;3.78;;;;;;;;;;4953795;28;20074;-82
2024/01/14 14:43:38;;;;;;;7.82;3.67;;;;;;;;;;4969690;28;20085;-82
2024/01/14 14:47:00;;;;;;;9.43;4.38;;;;;;;;;;4968173;28;20119;-82
2024/01/14 14:49:49;;;;;;;8.63;4.05;;;;;;;;;;4893693;29;20048;-83
2024/01/14 14:53:00;;;;;;;10.82;4.63;;;;;;;;;;4906224;29;20072;-81
2024/01/14 14:55:45;;;;;;;7.55;3.78;;;;;;;;;;4905913;29;20039;-81
2024/01/14 15:02:59;;;;;;;8.85;4.40;;;;;;;;;;4846708;29;20038;-82
2024/01/14 15:13:08;;;;;;;12.15;5.18;;;;;;;;;;4827332;29;20128;-82
2024/01/14 15:16:07;;;;;;;10.63;5.38;;;;;;;;;;4818463;29;20038;-81
2024/01/14 15:18:52;;;;;;;9.45;4.60;;;;;;;;;;4807923;29;20199;-81
2024/01/14 15:22:07;;;;;;;;;;;;;;;;;;;;;
2024/01/14 15:24:58;;;;;;;14.27;5.35;;;;;;;;;;4790671;29;20944;-82
2024/01/14 15:28:26;;;;;;;12.35;5.43;;;;;;;;;;4793764;29;20047;-81
2024/01/14 15:37:56;;;;;;;12.10;4.80;;;;;;;;;;4860792;29;19919;-81
2024/01/14 15:40:52;;;;;;;11.27;4.60;;;;;;;;;;4847246;29;20413;-82
2024/01/14 15:43:48;;;;;;;11.50;5.32;;;;;;;;;;4832455;29;21191;-81
2024/01/14 15:47:02;;;;;;;10.25;4.57;;;;;;;;;;4839021;29;20124;-82
2024/01/14 15:49:30;;;;;;;9.65;3.92;;;;;;;;;;4854900;29;20046;-82
2024/01/14 16:02:58;;;;;;;12.68;5.68;;;;;;;;;;4773085;30;20138;-82